sensor_id;sensor_type;location;lat;lon;timestamp;P1;durP1;ratioP1;P2;durP2;ratioP2
78346;SDS011;67803;41.330;69.282;2023-06-10T00:00:30;17.27;;;3.50;;
78346;SDS011;67803;41.330;69.282;2023-06-10T00:03:01;22.75;;;4.30;;
78346;SDS011;67803;41.330;69.282;2023-06-10T00:05:32;16.98;;;4.22;;
78346;SDS011;67803;41.330;69.282;2023-06-10T00:08:02;10.77;;;3.30;;
78346;SDS011;67803;41.330;69.282;2023-06-10T00:10:37;9.38;;;3.17;;
78346;SDS011;67803;41.330;69.282;2023-06-10T00:13:08;11.25;;;3.25;;
78346;SDS011;67803;41.330;69.282;2023-06-10T00:15:39;11.98;;;3.33;;
78346;SDS011;67803;41.330;69.282;2023-06-10T00:18:09;15.00;;;3.53;;
78346;SDS011;67803;41.330;69.282;2023-06-10T00:20:40;11.38;;;3.33;;
78346;SDS011;67803;41.330;69.282;2023-06-10T00:23:11;11.68;;;2.63;;
78346;SDS011;67803;41.330;69.282;2023-06-10T00:25:41;12.77;;;3.17;;
78346;SDS011;67803;41.330;69.282;2023-06-10T00:28:12;13.50;;;3.42;;
78346;SDS011;67803;41.330;69.282;2023-06-10T00:30:43;10.98;;;3.30;;
78346;SDS011;67803;41.330;69.282;2023-06-10T00:33:13;12.68;;;3.38;;
78346;SDS011;67803;41.330;69.282;2023-06-10T00:35:44;11.30;;;3.42;;
78346;SDS011;67803;41.330;69.282;2023-06-10T00:38:14;17.45;;;3.45;;
78346;SDS011;67803;41.330;69.282;2023-06-10T00:40:45;17.70;;;3.83;;
78346;SDS011;67803;41.330;69.282;2023-06-10T00:43:15;19.02;;;3.72;;
78346;SDS011;67803;41.330;69.282;2023-06-10T00:45:46;13.52;;;3.90;;
78346;SDS011;67803;41.330;69.282;2023-06-10T00:48:16;18.80;;;4.20;;
78346;SDS011;67803;41.330;69.282;2023-06-10T00:50:47;19.25;;;4.13;;
78346;SDS011;67803;41.330;69.282;2023-06-10T00:53:18;13.93;;;3.75;;
78346;SDS011;67803;41.330;69.282;2023-06-10T00:55:50;20.13;;;3.60;;
78346;SDS011;67803;41.330;69.282;2023-06-10T00:58:22;18.75;;;4.22;;
78346;SDS011;67803;41.330;69.282;2023-06-10T01:00:53;14.63;;;3.55;;
78346;SDS011;67803;41.330;69.282;2023-06-10T01:03:23;20.20;;;4.10;;
78346;SDS011;67803;41.330;69.282;2023-06-10T01:05:57;19.50;;;3.97;;
78346;SDS011;67803;41.330;69.282;2023-06-10T01:11:01;14.95;;;3.40;;
78346;SDS011;67803;41.330;69.282;2023-06-10T01:13:33;12.57;;;3.50;;
78346;SDS011;67803;41.330;69.282;2023-06-10T01:16:06;16.50;;;4.07;;
78346;SDS011;67803;41.330;69.282;2023-06-10T01:18:36;58.22;;;6.95;;
78346;SDS011;67803;41.330;69.282;2023-06-10T01:21:12;15.27;;;3.83;;
78346;SDS011;67803;41.330;69.282;2023-06-10T01:23:43;13.45;;;3.42;;
78346;SDS011;67803;41.330;69.282;2023-06-10T01:26:14;13.38;;;3.30;;
78346;SDS011;67803;41.330;69.282;2023-06-10T01:31:38;12.85;;;4.05;;
78346;SDS011;67803;41.330;69.282;2023-06-10T01:34:13;15.30;;;3.55;;
78346;SDS011;67803;41.330;69.282;2023-06-10T01:36:44;12.27;;;3.70;;
78346;SDS011;67803;41.330;69.282;2023-06-10T01:39:16;11.35;;;3.80;;
78346;SDS011;67803;41.330;69.282;2023-06-10T01:41:47;14.40;;;3.85;;
78346;SDS011;67803;41.330;69.282;2023-06-10T01:44:19;11.70;;;3.60;;
78346;SDS011;67803;41.330;69.282;2023-06-10T01:46:49;16.40;;;3.80;;
78346;SDS011;67803;41.330;69.282;2023-06-10T01:49:20;17.58;;;3.78;;
78346;SDS011;67803;41.330;69.282;2023-06-10T01:51:52;14.45;;;3.15;;
78346;SDS011;67803;41.330;69.282;2023-06-10T01:54:22;14.40;;;3.70;;
78346;SDS011;67803;41.330;69.282;2023-06-10T01:56:53;12.93;;;3.55;;
78346;SDS011;67803;41.330;69.282;2023-06-10T01:59:24;16.98;;;3.97;;
78346;SDS011;67803;41.330;69.282;2023-06-10T02:01:54;14.15;;;4.03;;
78346;SDS011;67803;41.330;69.282;2023-06-10T02:04:25;13.88;;;3.55;;
78346;SDS011;67803;41.330;69.282;2023-06-10T02:06:55;12.68;;;3.83;;
78346;SDS011;67803;41.330;69.282;2023-06-10T02:09:26;17.73;;;3.97;;
78346;SDS011;67803;41.330;69.282;2023-06-10T02:11:56;17.60;;;3.90;;
78346;SDS011;67803;41.330;69.282;2023-06-10T02:14:27;14.38;;;3.65;;
78346;SDS011;67803;41.330;69.282;2023-06-10T02:16:57;18.52;;;3.38;;
78346;SDS011;67803;41.330;69.282;2023-06-10T02:19:28;10.63;;;3.58;;
78346;SDS011;67803;41.330;69.282;2023-06-10T02:21:58;8.43;;;2.50;;
78346;SDS011;67803;41.330;69.282;2023-06-10T02:24:29;14.13;;;3.20;;
78346;SDS011;67803;41.330;69.282;2023-06-10T02:27:00;13.20;;;3.00;;
78346;SDS011;67803;41.330;69.282;2023-06-10T02:29:30;12.40;;;3.05;;
78346;SDS011;67803;41.330;69.282;2023-06-10T02:32:02;12.98;;;3.20;;
78346;SDS011;67803;41.330;69.282;2023-06-10T02:34:32;12.55;;;3.13;;
78346;SDS011;67803;41.330;69.282;2023-06-10T02:37:03;9.82;;;2.80;;
78346;SDS011;67803;41.330;69.282;2023-06-10T02:39:34;14.82;;;2.90;;
78346;SDS011;67803;41.330;69.282;2023-06-10T02:42:05;13.13;;;2.80;;
78346;SDS011;67803;41.330;69.282;2023-06-10T02:44:35;9.23;;;2.22;;
78346;SDS011;67803;41.330;69.282;2023-06-10T02:47:06;9.13;;;2.60;;
78346;SDS011;67803;41.330;69.282;2023-06-10T02:49:36;11.43;;;3.00;;
78346;SDS011;67803;41.330;69.282;2023-06-10T02:52:07;6.15;;;2.03;;
78346;SDS011;67803;41.330;69.282;2023-06-10T02:54:38;8.40;;;2.13;;
78346;SDS011;67803;41.330;69.282;2023-06-10T02:57:09;8.52;;;2.15;;
78346;SDS011;67803;41.330;69.282;2023-06-10T02:59:40;8.70;;;2.33;;
78346;SDS011;67803;41.330;69.282;2023-06-10T03:02:11;9.77;;;2.45;;
78346;SDS011;67803;41.330;69.282;2023-06-10T03:04:41;10.00;;;2.67;;
78346;SDS011;67803;41.330;69.282;2023-06-10T03:07:13;11.27;;;2.40;;
78346;SDS011;67803;41.330;69.282;2023-06-10T03:09:44;9.95;;;2.35;;
78346;SDS011;67803;41.330;69.282;2023-06-10T03:12:15;8.35;;;2.22;;
78346;SDS011;67803;41.330;69.282;2023-06-10T03:14:46;8.85;;;2.17;;
78346;SDS011;67803;41.330;69.282;2023-06-10T03:17:16;6.60;;;2.33;;
78346;SDS011;67803;41.330;69.282;2023-06-10T03:19:47;10.05;;;2.42;;
78346;SDS011;67803;41.330;69.282;2023-06-10T03:22:17;8.65;;;2.45;;
78346;SDS011;67803;41.330;69.282;2023-06-10T03:24:48;9.32;;;2.30;;
78346;SDS011;67803;41.330;69.282;2023-06-10T03:27:20;5.07;;;2.33;;
78346;SDS011;67803;41.330;69.282;2023-06-10T03:29:50;11.23;;;3.15;;
78346;SDS011;67803;41.330;69.282;2023-06-10T03:32:21;7.90;;;2.65;;
78346;SDS011;67803;41.330;69.282;2023-06-10T03:34:51;9.27;;;2.38;;
78346;SDS011;67803;41.330;69.282;2023-06-10T03:37:28;9.18;;;3.10;;
78346;SDS011;67803;41.330;69.282;2023-06-10T03:39:58;11.55;;;2.85;;
78346;SDS011;67803;41.330;69.282;2023-06-10T03:42:28;6.70;;;2.25;;
78346;SDS011;67803;41.330;69.282;2023-06-10T03:44:59;8.20;;;2.53;;
78346;SDS011;67803;41.330;69.282;2023-06-10T03:47:33;12.93;;;2.38;;
78346;SDS011;67803;41.330;69.282;2023-06-10T03:50:07;9.35;;;2.55;;
78346;SDS011;67803;41.330;69.282;2023-06-10T03:52:41;13.95;;;2.63;;
78346;SDS011;67803;41.330;69.282;2023-06-10T03:55:12;12.98;;;2.72;;
78346;SDS011;67803;41.330;69.282;2023-06-10T03:57:43;7.07;;;2.42;;
78346;SDS011;67803;41.330;69.282;2023-06-10T04:00:14;6.43;;;2.55;;
78346;SDS011;67803;41.330;69.282;2023-06-10T04:02:45;6.45;;;2.30;;
78346;SDS011;67803;41.330;69.282;2023-06-10T04:05:16;10.88;;;2.50;;
78346;SDS011;67803;41.330;69.282;2023-06-10T04:07:46;8.68;;;2.45;;
78346;SDS011;67803;41.330;69.282;2023-06-10T04:10:18;9.23;;;2.38;;
78346;SDS011;67803;41.330;69.282;2023-06-10T04:12:49;9.43;;;3.10;;
78346;SDS011;67803;41.330;69.282;2023-06-10T04:15:19;9.05;;;2.45;;
78346;SDS011;67803;41.330;69.282;2023-06-10T04:17:49;8.85;;;2.78;;
78346;SDS011;67803;41.330;69.282;2023-06-10T04:20:21;17.90;;;2.88;;
78346;SDS011;67803;41.330;69.282;2023-06-10T04:22:51;13.43;;;2.67;;
78346;SDS011;67803;41.330;69.282;2023-06-10T04:25:21;11.45;;;2.90;;
78346;SDS011;67803;41.330;69.282;2023-06-10T04:27:53;7.65;;;2.55;;
78346;SDS011;67803;41.330;69.282;2023-06-10T04:30:23;12.45;;;2.72;;
78346;SDS011;67803;41.330;69.282;2023-06-10T04:32:54;11.15;;;3.00;;
78346;SDS011;67803;41.330;69.282;2023-06-10T04:35:24;10.15;;;2.47;;
78346;SDS011;67803;41.330;69.282;2023-06-10T04:37:57;9.98;;;2.58;;
78346;SDS011;67803;41.330;69.282;2023-06-10T04:40:28;9.63;;;2.75;;
78346;SDS011;67803;41.330;69.282;2023-06-10T04:42:58;6.43;;;2.60;;
78346;SDS011;67803;41.330;69.282;2023-06-10T04:45:29;7.07;;;2.72;;
78346;SDS011;67803;41.330;69.282;2023-06-10T04:48:00;9.77;;;2.97;;
78346;SDS011;67803;41.330;69.282;2023-06-10T04:50:30;10.07;;;2.90;;
78346;SDS011;67803;41.330;69.282;2023-06-10T04:53:03;14.10;;;2.85;;
78346;SDS011;67803;41.330;69.282;2023-06-10T04:55:33;6.80;;;2.78;;
78346;SDS011;67803;41.330;69.282;2023-06-10T04:58:04;9.00;;;2.70;;
78346;SDS011;67803;41.330;69.282;2023-06-10T05:00:35;12.07;;;2.85;;
78346;SDS011;67803;41.330;69.282;2023-06-10T05:03:05;10.25;;;3.50;;
78346;SDS011;67803;41.330;69.282;2023-06-10T05:05:36;10.25;;;3.22;;
78346;SDS011;67803;41.330;69.282;2023-06-10T05:08:06;11.25;;;2.92;;
78346;SDS011;67803;41.330;69.282;2023-06-10T05:10:37;10.25;;;3.45;;
78346;SDS011;67803;41.330;69.282;2023-06-10T05:13:07;8.25;;;3.40;;
78346;SDS011;67803;41.330;69.282;2023-06-10T05:15:38;11.18;;;3.33;;
78346;SDS011;67803;41.330;69.282;2023-06-10T05:18:08;10.98;;;3.55;;
78346;SDS011;67803;41.330;69.282;2023-06-10T05:20:39;15.60;;;2.92;;
78346;SDS011;67803;41.330;69.282;2023-06-10T05:23:09;8.63;;;2.85;;
78346;SDS011;67803;41.330;69.282;2023-06-10T05:25:40;13.48;;;2.92;;
78346;SDS011;67803;41.330;69.282;2023-06-10T05:28:11;11.63;;;3.35;;
78346;SDS011;67803;41.330;69.282;2023-06-10T05:30:42;12.65;;;3.17;;
78346;SDS011;67803;41.330;69.282;2023-06-10T05:33:12;16.45;;;3.85;;
78346;SDS011;67803;41.330;69.282;2023-06-10T05:35:43;11.75;;;3.38;;
78346;SDS011;67803;41.330;69.282;2023-06-10T05:38:13;17.35;;;3.80;;
78346;SDS011;67803;41.330;69.282;2023-06-10T05:40:45;15.60;;;4.40;;
78346;SDS011;67803;41.330;69.282;2023-06-10T05:43:16;15.40;;;3.72;;
78346;SDS011;67803;41.330;69.282;2023-06-10T05:45:46;16.58;;;3.38;;
78346;SDS011;67803;41.330;69.282;2023-06-10T05:48:17;13.20;;;3.53;;
78346;SDS011;67803;41.330;69.282;2023-06-10T05:50:49;15.82;;;3.60;;
78346;SDS011;67803;41.330;69.282;2023-06-10T05:53:20;14.18;;;3.95;;
78346;SDS011;67803;41.330;69.282;2023-06-10T05:55:50;21.30;;;4.05;;
78346;SDS011;67803;41.330;69.282;2023-06-10T05:58:22;16.08;;;4.68;;
78346;SDS011;67803;41.330;69.282;2023-06-10T06:00:53;16.83;;;3.60;;
78346;SDS011;67803;41.330;69.282;2023-06-10T06:03:23;18.00;;;3.80;;
78346;SDS011;67803;41.330;69.282;2023-06-10T06:05:54;16.48;;;3.50;;
78346;SDS011;67803;41.330;69.282;2023-06-10T06:08:25;15.20;;;4.03;;
78346;SDS011;67803;41.330;69.282;2023-06-10T06:10:55;17.45;;;4.32;;
78346;SDS011;67803;41.330;69.282;2023-06-10T06:13:25;17.38;;;4.10;;
78346;SDS011;67803;41.330;69.282;2023-06-10T06:15:56;14.90;;;4.25;;
78346;SDS011;67803;41.330;69.282;2023-06-10T06:18:26;13.30;;;4.38;;
78346;SDS011;67803;41.330;69.282;2023-06-10T06:20:57;12.65;;;4.15;;
78346;SDS011;67803;41.330;69.282;2023-06-10T06:23:27;11.27;;;3.33;;
78346;SDS011;67803;41.330;69.282;2023-06-10T06:25:58;20.98;;;4.75;;
78346;SDS011;67803;41.330;69.282;2023-06-10T06:28:28;11.20;;;3.90;;
78346;SDS011;67803;41.330;69.282;2023-06-10T06:30:59;14.75;;;3.50;;
78346;SDS011;67803;41.330;69.282;2023-06-10T06:33:30;14.38;;;3.83;;
78346;SDS011;67803;41.330;69.282;2023-06-10T06:36:02;16.50;;;4.65;;
78346;SDS011;67803;41.330;69.282;2023-06-10T06:38:33;13.90;;;3.88;;
78346;SDS011;67803;41.330;69.282;2023-06-10T06:41:03;12.57;;;3.97;;
78346;SDS011;67803;41.330;69.282;2023-06-10T06:43:36;18.20;;;3.45;;
78346;SDS011;67803;41.330;69.282;2023-06-10T06:46:07;12.25;;;3.78;;
78346;SDS011;67803;41.330;69.282;2023-06-10T06:48:37;13.65;;;4.00;;
78346;SDS011;67803;41.330;69.282;2023-06-10T06:51:08;14.30;;;3.83;;
78346;SDS011;67803;41.330;69.282;2023-06-10T06:53:39;17.95;;;4.38;;
78346;SDS011;67803;41.330;69.282;2023-06-10T06:56:15;16.25;;;3.67;;
78346;SDS011;67803;41.330;69.282;2023-06-10T06:58:45;11.88;;;3.95;;
78346;SDS011;67803;41.330;69.282;2023-06-10T07:01:17;15.93;;;4.63;;
78346;SDS011;67803;41.330;69.282;2023-06-10T07:03:48;19.40;;;4.90;;
78346;SDS011;67803;41.330;69.282;2023-06-10T07:06:19;11.95;;;3.65;;
78346;SDS011;67803;41.330;69.282;2023-06-10T07:08:50;15.10;;;4.60;;
78346;SDS011;67803;41.330;69.282;2023-06-10T07:11:21;17.45;;;4.32;;
78346;SDS011;67803;41.330;69.282;2023-06-10T07:13:52;13.75;;;3.90;;
78346;SDS011;67803;41.330;69.282;2023-06-10T07:16:22;12.65;;;3.88;;
78346;SDS011;67803;41.330;69.282;2023-06-10T07:18:53;18.50;;;4.18;;
78346;SDS011;67803;41.330;69.282;2023-06-10T07:21:24;16.20;;;3.90;;
78346;SDS011;67803;41.330;69.282;2023-06-10T07:23:55;12.95;;;4.00;;
78346;SDS011;67803;41.330;69.282;2023-06-10T07:26:26;12.55;;;3.72;;
78346;SDS011;67803;41.330;69.282;2023-06-10T07:28:56;20.00;;;4.18;;
78346;SDS011;67803;41.330;69.282;2023-06-10T07:31:27;22.40;;;4.35;;
78346;SDS011;67803;41.330;69.282;2023-06-10T07:33:58;17.75;;;4.10;;
78346;SDS011;67803;41.330;69.282;2023-06-10T07:36:28;8.65;;;3.33;;
78346;SDS011;67803;41.330;69.282;2023-06-10T07:38:59;20.25;;;4.22;;
78346;SDS011;67803;41.330;69.282;2023-06-10T07:41:30;14.95;;;4.10;;
78346;SDS011;67803;41.330;69.282;2023-06-10T07:44:01;13.48;;;4.10;;
78346;SDS011;67803;41.330;69.282;2023-06-10T07:46:31;14.23;;;4.20;;
78346;SDS011;67803;41.330;69.282;2023-06-10T07:49:02;17.83;;;4.10;;
78346;SDS011;67803;41.330;69.282;2023-06-10T07:51:32;17.15;;;5.15;;
78346;SDS011;67803;41.330;69.282;2023-06-10T07:54:03;20.10;;;4.50;;
78346;SDS011;67803;41.330;69.282;2023-06-10T07:56:33;18.98;;;4.43;;
78346;SDS011;67803;41.330;69.282;2023-06-10T07:59:04;15.75;;;4.13;;
78346;SDS011;67803;41.330;69.282;2023-06-10T08:01:34;15.60;;;3.95;;
78346;SDS011;67803;41.330;69.282;2023-06-10T08:04:07;17.13;;;4.20;;
78346;SDS011;67803;41.330;69.282;2023-06-10T08:06:38;18.25;;;4.25;;
78346;SDS011;67803;41.330;69.282;2023-06-10T08:09:08;16.20;;;5.00;;
78346;SDS011;67803;41.330;69.282;2023-06-10T08:11:38;13.70;;;3.78;;
78346;SDS011;67803;41.330;69.282;2023-06-10T08:14:09;13.90;;;4.32;;
78346;SDS011;67803;41.330;69.282;2023-06-10T08:16:39;25.30;;;4.90;;
78346;SDS011;67803;41.330;69.282;2023-06-10T08:19:10;19.00;;;4.68;;
78346;SDS011;67803;41.330;69.282;2023-06-10T08:21:40;11.60;;;3.90;;
78346;SDS011;67803;41.330;69.282;2023-06-10T08:24:11;14.38;;;4.80;;
78346;SDS011;67803;41.330;69.282;2023-06-10T08:26:41;24.30;;;5.22;;
78346;SDS011;67803;41.330;69.282;2023-06-10T08:29:12;15.43;;;4.63;;
78346;SDS011;67803;41.330;69.282;2023-06-10T08:31:43;18.92;;;5.15;;
78346;SDS011;67803;41.330;69.282;2023-06-10T08:34:14;19.17;;;4.70;;
78346;SDS011;67803;41.330;69.282;2023-06-10T08:36:44;23.55;;;5.25;;
78346;SDS011;67803;41.330;69.282;2023-06-10T08:39:15;20.52;;;4.63;;
78346;SDS011;67803;41.330;69.282;2023-06-10T08:41:50;18.08;;;4.80;;
78346;SDS011;67803;41.330;69.282;2023-06-10T08:44:28;20.67;;;5.28;;
78346;SDS011;67803;41.330;69.282;2023-06-10T08:46:59;16.40;;;4.72;;
78346;SDS011;67803;41.330;69.282;2023-06-10T08:49:30;16.83;;;4.60;;
78346;SDS011;67803;41.330;69.282;2023-06-10T08:52:04;18.67;;;5.00;;
78346;SDS011;67803;41.330;69.282;2023-06-10T08:54:36;25.67;;;5.40;;
78346;SDS011;67803;41.330;69.282;2023-06-10T08:57:09;20.00;;;5.35;;
78346;SDS011;67803;41.330;69.282;2023-06-10T08:59:39;24.20;;;5.57;;
78346;SDS011;67803;41.330;69.282;2023-06-10T09:02:11;18.48;;;4.85;;
78346;SDS011;67803;41.330;69.282;2023-06-10T09:04:42;22.05;;;5.18;;
78346;SDS011;67803;41.330;69.282;2023-06-10T09:07:15;18.20;;;4.68;;
78346;SDS011;67803;41.330;69.282;2023-06-10T09:09:45;16.27;;;4.65;;
78346;SDS011;67803;41.330;69.282;2023-06-10T09:12:16;14.88;;;4.80;;
78346;SDS011;67803;41.330;69.282;2023-06-10T09:14:46;19.08;;;4.57;;
78346;SDS011;67803;41.330;69.282;2023-06-10T09:17:17;19.45;;;4.93;;
78346;SDS011;67803;41.330;69.282;2023-06-10T09:19:48;20.80;;;4.80;;
78346;SDS011;67803;41.330;69.282;2023-06-10T09:22:19;18.77;;;4.63;;
78346;SDS011;67803;41.330;69.282;2023-06-10T09:24:49;13.77;;;4.13;;
78346;SDS011;67803;41.330;69.282;2023-06-10T09:27:20;19.92;;;4.30;;
78346;SDS011;67803;41.330;69.282;2023-06-10T09:29:51;19.98;;;4.25;;
78346;SDS011;67803;41.330;69.282;2023-06-10T09:32:21;14.10;;;4.18;;
78346;SDS011;67803;41.330;69.282;2023-06-10T09:34:52;16.88;;;4.10;;
78346;SDS011;67803;41.330;69.282;2023-06-10T09:37:23;14.18;;;3.70;;
78346;SDS011;67803;41.330;69.282;2023-06-10T09:40:03;10.82;;;3.80;;
78346;SDS011;67803;41.330;69.282;2023-06-10T09:42:36;11.77;;;3.90;;
78346;SDS011;67803;41.330;69.282;2023-06-10T09:45:07;15.93;;;4.00;;
78346;SDS011;67803;41.330;69.282;2023-06-10T09:47:38;15.70;;;4.15;;
78346;SDS011;67803;41.330;69.282;2023-06-10T09:50:08;14.40;;;3.83;;
78346;SDS011;67803;41.330;69.282;2023-06-10T09:52:39;12.38;;;4.32;;
78346;SDS011;67803;41.330;69.282;2023-06-10T09:55:09;11.70;;;3.92;;
78346;SDS011;67803;41.330;69.282;2023-06-10T09:57:41;11.25;;;3.90;;
78346;SDS011;67803;41.330;69.282;2023-06-10T10:00:14;15.52;;;3.88;;
78346;SDS011;67803;41.330;69.282;2023-06-10T10:05:18;14.45;;;4.20;;
78346;SDS011;67803;41.330;69.282;2023-06-10T10:07:49;20.40;;;4.40;;
78346;SDS011;67803;41.330;69.282;2023-06-10T10:10:20;14.27;;;4.18;;
78346;SDS011;67803;41.330;69.282;2023-06-10T10:12:54;13.80;;;3.88;;
78346;SDS011;67803;41.330;69.282;2023-06-10T10:15:28;21.55;;;4.10;;
78346;SDS011;67803;41.330;69.282;2023-06-10T10:20:31;15.63;;;4.20;;
78346;SDS011;67803;41.330;69.282;2023-06-10T10:23:03;16.50;;;3.97;;
78346;SDS011;67803;41.330;69.282;2023-06-10T10:25:40;15.52;;;4.22;;
78346;SDS011;67803;41.330;69.282;2023-06-10T10:28:12;15.75;;;4.95;;
78346;SDS011;67803;41.330;69.282;2023-06-10T10:30:52;14.43;;;4.50;;
78346;SDS011;67803;41.330;69.282;2023-06-10T10:33:36;19.02;;;4.78;;
78346;SDS011;67803;41.330;69.282;2023-06-10T10:36:10;17.02;;;4.80;;
78346;SDS011;67803;41.330;69.282;2023-06-10T10:38:41;11.30;;;4.10;;
78346;SDS011;67803;41.330;69.282;2023-06-10T10:41:11;14.32;;;4.60;;
78346;SDS011;67803;41.330;69.282;2023-06-10T10:43:43;13.60;;;3.90;;
78346;SDS011;67803;41.330;69.282;2023-06-10T10:46:15;15.77;;;4.30;;
78346;SDS011;67803;41.330;69.282;2023-06-10T10:48:51;9.35;;;3.78;;
78346;SDS011;67803;41.330;69.282;2023-06-10T10:51:23;33.97;;;4.93;;
78346;SDS011;67803;41.330;69.282;2023-06-10T10:54:10;16.58;;;4.20;;
78346;SDS011;67803;41.330;69.282;2023-06-10T11:02:19;17.33;;;4.15;;
78346;SDS011;67803;41.330;69.282;2023-06-10T11:05:02;15.45;;;4.90;;
78346;SDS011;67803;41.330;69.282;2023-06-10T11:07:34;16.52;;;4.72;;
78346;SDS011;67803;41.330;69.282;2023-06-10T11:10:06;11.18;;;3.88;;
78346;SDS011;67803;41.330;69.282;2023-06-10T11:15:20;19.10;;;4.25;;
78346;SDS011;67803;41.330;69.282;2023-06-10T11:18:38;16.55;;;4.45;;
78346;SDS011;67803;41.330;69.282;2023-06-10T11:31:31;20.92;;;3.75;;
78346;SDS011;67803;41.330;69.282;2023-06-10T11:34:02;15.40;;;4.47;;
78346;SDS011;67803;41.330;69.282;2023-06-10T11:36:37;16.85;;;4.53;;
78346;SDS011;67803;41.330;69.282;2023-06-10T11:39:10;15.00;;;4.40;;
78346;SDS011;67803;41.330;69.282;2023-06-10T11:41:41;12.57;;;4.72;;
78346;SDS011;67803;41.330;69.282;2023-06-10T11:44:12;14.38;;;4.47;;
78346;SDS011;67803;41.330;69.282;2023-06-10T11:46:43;14.60;;;4.07;;
78346;SDS011;67803;41.330;69.282;2023-06-10T11:49:15;19.65;;;4.47;;
78346;SDS011;67803;41.330;69.282;2023-06-10T11:51:45;15.77;;;4.30;;
78346;SDS011;67803;41.330;69.282;2023-06-10T11:56:49;13.63;;;4.20;;
78346;SDS011;67803;41.330;69.282;2023-06-10T11:59:22;16.05;;;4.15;;
78346;SDS011;67803;41.330;69.282;2023-06-10T12:01:57;14.95;;;4.45;;
78346;SDS011;67803;41.330;69.282;2023-06-10T12:04:27;32.67;;;6.07;;
78346;SDS011;67803;41.330;69.282;2023-06-10T12:06:58;16.88;;;5.13;;
78346;SDS011;67803;41.330;69.282;2023-06-10T12:09:29;13.30;;;4.43;;
78346;SDS011;67803;41.330;69.282;2023-06-10T12:12:03;15.48;;;4.65;;
78346;SDS011;67803;41.330;69.282;2023-06-10T12:14:53;15.70;;;4.43;;
78346;SDS011;67803;41.330;69.282;2023-06-10T12:20:00;16.45;;;4.82;;
78346;SDS011;67803;41.330;69.282;2023-06-10T12:22:41;15.63;;;4.60;;
78346;SDS011;67803;41.330;69.282;2023-06-10T12:25:11;12.57;;;4.70;;
78346;SDS011;67803;41.330;69.282;2023-06-10T12:27:51;16.75;;;5.03;;
78346;SDS011;67803;41.330;69.282;2023-06-10T12:30:24;27.63;;;6.15;;
78346;SDS011;67803;41.330;69.282;2023-06-10T12:32:55;14.88;;;4.70;;
78346;SDS011;67803;41.330;69.282;2023-06-10T12:35:26;15.13;;;4.65;;
78346;SDS011;67803;41.330;69.282;2023-06-10T12:38:01;12.88;;;5.05;;
78346;SDS011;67803;41.330;69.282;2023-06-10T12:40:33;18.58;;;4.47;;
78346;SDS011;67803;41.330;69.282;2023-06-10T12:43:04;18.23;;;5.05;;
78346;SDS011;67803;41.330;69.282;2023-06-10T12:45:38;13.82;;;4.57;;
78346;SDS011;67803;41.330;69.282;2023-06-10T12:50:51;15.85;;;5.68;;
78346;SDS011;67803;41.330;69.282;2023-06-10T12:53:23;14.55;;;4.63;;
78346;SDS011;67803;41.330;69.282;2023-06-10T12:55:53;16.38;;;5.22;;
78346;SDS011;67803;41.330;69.282;2023-06-10T12:58:24;18.70;;;5.78;;
78346;SDS011;67803;41.330;69.282;2023-06-10T13:00:54;62.28;;;7.43;;
78346;SDS011;67803;41.330;69.282;2023-06-10T13:03:25;12.05;;;5.20;;
78346;SDS011;67803;41.330;69.282;2023-06-10T13:05:56;20.73;;;5.68;;
78346;SDS011;67803;41.330;69.282;2023-06-10T13:08:27;15.32;;;4.88;;
78346;SDS011;67803;41.330;69.282;2023-06-10T13:10:57;13.00;;;4.72;;
78346;SDS011;67803;41.330;69.282;2023-06-10T13:13:28;13.75;;;5.00;;
78346;SDS011;67803;41.330;69.282;2023-06-10T13:15:59;14.32;;;5.65;;
78346;SDS011;67803;41.330;69.282;2023-06-10T13:18:30;19.25;;;5.45;;
78346;SDS011;67803;41.330;69.282;2023-06-10T13:21:03;22.67;;;6.30;;
78346;SDS011;67803;41.330;69.282;2023-06-10T13:23:33;12.77;;;4.57;;
78346;SDS011;67803;41.330;69.282;2023-06-10T13:26:04;20.70;;;5.10;;
78346;SDS011;67803;41.330;69.282;2023-06-10T13:28:35;17.77;;;4.78;;
78346;SDS011;67803;41.330;69.282;2023-06-10T13:31:05;22.08;;;4.22;;
78346;SDS011;67803;41.330;69.282;2023-06-10T13:33:36;13.98;;;4.13;;
78346;SDS011;67803;41.330;69.282;2023-06-10T13:36:08;14.27;;;4.40;;
78346;SDS011;67803;41.330;69.282;2023-06-10T13:38:39;15.73;;;3.80;;
78346;SDS011;67803;41.330;69.282;2023-06-10T13:41:09;11.10;;;3.67;;
78346;SDS011;67803;41.330;69.282;2023-06-10T13:43:40;11.65;;;4.00;;
78346;SDS011;67803;41.330;69.282;2023-06-10T13:46:11;16.27;;;4.00;;
78346;SDS011;67803;41.330;69.282;2023-06-10T13:48:41;10.80;;;4.03;;
78346;SDS011;67803;41.330;69.282;2023-06-10T13:51:12;16.10;;;4.30;;
78346;SDS011;67803;41.330;69.282;2023-06-10T13:53:43;16.08;;;4.25;;
78346;SDS011;67803;41.330;69.282;2023-06-10T13:56:14;16.65;;;3.90;;
78346;SDS011;67803;41.330;69.282;2023-06-10T13:58:45;15.45;;;4.45;;
78346;SDS011;67803;41.330;69.282;2023-06-10T14:01:15;14.90;;;4.40;;
78346;SDS011;67803;41.330;69.282;2023-06-10T14:03:46;13.10;;;4.55;;
78346;SDS011;67803;41.330;69.282;2023-06-10T14:06:16;16.48;;;4.75;;
78346;SDS011;67803;41.330;69.282;2023-06-10T14:08:48;14.00;;;4.47;;
78346;SDS011;67803;41.330;69.282;2023-06-10T14:11:19;18.75;;;5.80;;
78346;SDS011;67803;41.330;69.282;2023-06-10T14:13:49;13.32;;;4.32;;
78346;SDS011;67803;41.330;69.282;2023-06-10T14:16:20;13.43;;;4.53;;
78346;SDS011;67803;41.330;69.282;2023-06-10T14:18:50;18.00;;;4.90;;
78346;SDS011;67803;41.330;69.282;2023-06-10T14:21:21;20.83;;;5.65;;
78346;SDS011;67803;41.330;69.282;2023-06-10T14:23:51;22.67;;;4.78;;
78346;SDS011;67803;41.330;69.282;2023-06-10T14:26:23;12.90;;;4.38;;
78346;SDS011;67803;41.330;69.282;2023-06-10T14:28:53;22.05;;;5.05;;
78346;SDS011;67803;41.330;69.282;2023-06-10T14:31:24;18.08;;;4.68;;
78346;SDS011;67803;41.330;69.282;2023-06-10T14:33:55;17.73;;;4.15;;
78346;SDS011;67803;41.330;69.282;2023-06-10T14:36:26;11.30;;;4.22;;
78346;SDS011;67803;41.330;69.282;2023-06-10T14:38:56;31.45;;;5.55;;
78346;SDS011;67803;41.330;69.282;2023-06-10T14:41:27;16.25;;;3.72;;
78346;SDS011;67803;41.330;69.282;2023-06-10T14:43:58;16.73;;;4.82;;
78346;SDS011;67803;41.330;69.282;2023-06-10T14:46:28;17.85;;;5.03;;
78346;SDS011;67803;41.330;69.282;2023-06-10T14:48:59;11.60;;;4.20;;
78346;SDS011;67803;41.330;69.282;2023-06-10T14:51:29;11.13;;;3.67;;
78346;SDS011;67803;41.330;69.282;2023-06-10T14:54:00;12.70;;;3.78;;
78346;SDS011;67803;41.330;69.282;2023-06-10T14:56:30;17.42;;;3.95;;
78346;SDS011;67803;41.330;69.282;2023-06-10T14:59:01;15.88;;;4.28;;
78346;SDS011;67803;41.330;69.282;2023-06-10T15:01:31;13.52;;;3.50;;
78346;SDS011;67803;41.330;69.282;2023-06-10T15:04:02;15.02;;;4.25;;
78346;SDS011;67803;41.330;69.282;2023-06-10T15:06:32;17.42;;;4.35;;
78346;SDS011;67803;41.330;69.282;2023-06-10T15:09:03;12.70;;;4.30;;
78346;SDS011;67803;41.330;69.282;2023-06-10T15:11:33;10.75;;;4.00;;
78346;SDS011;67803;41.330;69.282;2023-06-10T15:14:04;13.82;;;4.00;;
78346;SDS011;67803;41.330;69.282;2023-06-10T15:16:34;15.30;;;4.40;;
78346;SDS011;67803;41.330;69.282;2023-06-10T15:19:05;19.27;;;4.95;;
78346;SDS011;67803;41.330;69.282;2023-06-10T15:21:38;14.25;;;4.50;;
78346;SDS011;67803;41.330;69.282;2023-06-10T15:24:08;17.83;;;4.93;;